21kousinmaru — JD2168 — position and weather

sailwx.info

Track history (hours):
 
Tides and Currents Weather Stations Pressure Air Temp Water Temp Dewpoint Dewpoint Depression Visibility Wind Speed Wind Dir Waves Ship Positions

21kousinmaru

Last reported at 2017-May-27 00:00 UTC. Time now 2017-May-27 00:26 UTC.
Position N 34°32' E 135°20'.

Length 68 m; draft 4.5 m.

MMSI: 431501835.

Date/timePositionNaut miles runAvg speedWind from/ knotsBaromVisibWave heightAir tempDewpointWater temp
2017-May-27 00:00N 34°32' E 135°20'0 0.1
2017-May-26 23:24N 34°32' E 135°19'0 0.0
2017-May-26 22:11N 34°32' E 135°19'0 0.0
2017-May-26 21:52N 34°32' E 135°19'0 0.1
2017-May-26 21:30N 34°32' E 135°19'0 0.1
2017-May-26 21:00N 34°32' E 135°19'0 0.0
2017-May-26 20:30N 34°32' E 135°19'0 0.0
2017-May-26 20:00N 34°32' E 135°19'0 0.0
2017-May-26 19:30N 34°32' E 135°19'0 0.0
2017-May-26 19:00N 34°32' E 135°19'0 0.0
2017-May-26 18:30N 34°32' E 135°19'0 0.0
2017-May-26 18:00N 34°32' E 135°19'0 0.0
2017-May-26 17:30N 34°32' E 135°19'0 0.0
2017-May-26 17:00N 34°32' E 135°19'0 0.0
2017-May-26 16:30N 34°32' E 135°19'0 0.0
2017-May-26 16:00N 34°32' E 135°19'0 0.0
2017-May-26 15:30N 34°32' E 135°19'0 0.0
2017-May-26 15:00N 34°32' E 135°19'0 0.0
2017-May-26 14:30N 34°32' E 135°19'0 0.0
2017-May-26 13:30N 34°32' E 135°19'0 0.0
2017-May-26 13:00N 34°32' E 135°19'0 0.0
2017-May-26 12:30N 34°32' E 135°19'0 0.6
2017-May-26 12:00N 34°32' E 135°19'611.2
2017-May-26 11:30N 34°28' E 135°14'812.5
2017-May-26 10:51N 34°23' E 135°06'1311.9
2017-May-26 09:46N 34°11' E 134°60'412.7
2017-May-26 09:27N 34°07' E 135°00'23110.2
2017-May-25 10:49N 35°03' E 139°33'412.0
2017-May-25 10:30N 35°05' E 139°37'612.5
2017-May-25 10:01N 35°08' E 139°43'612.6
2017-May-25 09:31N 35°14' E 139°46'612.6
2017-May-25 09:01N 35°20' E 139°43'612.8
2017-May-25 08:31N 35°26' E 139°43'4 9.0
2017-May-25 08:01N 35°30' E 139°45'0 0.2
2017-May-25 07:31N 35°30' E 139°45'0 0.0
2017-May-25 07:01N 35°30' E 139°45'0 0.0
2017-May-25 06:31N 35°30' E 139°45'0 0.0
2017-May-25 06:00N 35°30' E 139°45'0 0.0
2017-May-25 05:31N 35°30' E 139°45'0 0.0
2017-May-25 05:01N 35°30' E 139°45'0 0.0
2017-May-25 04:31N 35°30' E 139°45'0 0.0
2017-May-25 04:01N 35°30' E 139°45'0 0.0
2017-May-25 03:31N 35°30' E 139°45'0 0.0
2017-May-25 03:00N 35°30' E 139°45'2 4.5
2017-May-25 02:31N 35°29' E 139°42'4 8.1
2017-May-25 02:01N 35°28' E 139°47'1 2.8
2017-May-25 01:30N 35°29' E 139°49'0 0.0
2017-May-25 01:00N 35°29' E 139°49'0 0.0
2017-May-25 00:30N 35°29' E 139°49'0 0.1
2017-May-25 00:00N 35°29' E 139°49'0 0.1
2017-May-24 23:30N 35°29' E 139°49'0 0.1
2017-May-24 23:00N 35°29' E 139°49'0 0.0
2017-May-24 22:30N 35°29' E 139°49'0 0.0
2017-May-24 22:00N 35°29' E 139°49'0 0.0
2017-May-24 21:30N 35°29' E 139°49'0 0.1
2017-May-24 21:00N 35°29' E 139°49'0 0.0
2017-May-24 20:30N 35°29' E 139°49'0 0.0
2017-May-24 20:00N 35°29' E 139°49'0 0.0
2017-May-24 19:30N 35°29' E 139°49'0 0.0
2017-May-24 19:00N 35°29' E 139°49'0 0.0
2017-May-24 18:30N 35°29' E 139°49'0 0.0
2017-May-24 18:00N 35°29' E 139°49'0 0.0
2017-May-24 17:30N 35°29' E 139°49'0 0.0
2017-May-24 17:00N 35°29' E 139°49'0 0.0
2017-May-24 16:27N 35°29' E 139°49'0 0.0
2017-May-24 16:00N 35°29' E 139°49'0 0.0
2017-May-24 15:30N 35°29' E 139°49'0 0.0
2017-May-24 15:00N 35°29' E 139°49'4 7.8
2017-May-24 14:30N 35°26' E 139°47'1211.6
2017-May-24 13:31N 35°14' E 139°47'612.8
2017-May-24 13:00N 35°08' E 139°46'612.7
2017-May-24 12:30N 35°01' E 139°44'4 0.2
2017-May-23 08:38N 34°57' E 139°44'312.1
2017-May-23 08:25N 34°60' E 139°43'511.9
2017-May-23 08:00N 35°04' E 139°44'611.5
2017-May-23 07:30N 35°10' E 139°46'611.4
2017-May-23 06:58N 35°16' E 139°45'511.3
2017-May-23 06:31N 35°21' E 139°42'611.8
2017-May-23 06:01N 35°27' E 139°43'4 7.6
2017-May-23 05:30N 35°30' E 139°45'0 0.1
2017-May-23 05:00N 35°30' E 139°45'0 0.0
2017-May-23 04:29N 35°30' E 139°45'0 0.0
2017-May-23 03:59N 35°30' E 139°45'0 0.0
2017-May-23 03:28N 35°30' E 139°45'0 0.0
2017-May-23 02:58N 35°30' E 139°45'0 0.0
2017-May-23 02:28N 35°30' E 139°45'0 0.0
2017-May-23 01:58N 35°30' E 139°45'0 0.0
2017-May-23 01:25N 35°30' E 139°45'0 0.0
2017-May-23 00:58N 35°30' E 139°45'0 0.0
2017-May-23 00:25N 35°30' E 139°45'0 0.0
2017-May-22 23:58N 35°30' E 139°45'3 6.3
2017-May-22 23:31N 35°28' E 139°42'510.3
2017-May-22 23:01N 35°29' E 139°48'1 1.1
2017-May-22 22:30N 35°29' E 139°49'0 0.0
2017-May-22 21:59N 35°29' E 139°49'0 0.0
2017-May-22 21:31N 35°29' E 139°49'0 0.0
2017-May-22 21:01N 35°29' E 139°49'0 0.1
2017-May-22 20:30N 35°29' E 139°49'0 0.1
2017-May-22 20:00N 35°29' E 139°49'0 0.0
2017-May-22 19:30N 35°29' E 139°49'0 0.0
2017-May-22 19:01N 35°29' E 139°49'0 0.0
2017-May-22 18:31N 35°29' E 139°49'0 0.0
2017-May-22 18:00N 35°29' E 139°49'0 0.0
2017-May-22 17:30N 35°29' E 139°49'0 0.0
2017-May-22 17:00N 35°29' E 139°49'0 0.0
2017-May-22 16:30N 35°29' E 139°49'0 0.0
2017-May-22 16:00N 35°29' E 139°49'0 0.0
2017-May-22 15:30N 35°29' E 139°49'0 0.0
2017-May-22 15:00N 35°29' E 139°49'0 0.0
2017-May-22 14:00N 35°29' E 139°49'0 0.0
2017-May-22 13:30N 35°29' E 139°49'0 0.0
2017-May-22 13:00N 35°29' E 139°49'0 0.0
2017-May-22 12:30N 35°29' E 139°49'0 0.0
2017-May-22 12:00N 35°29' E 139°49'0 0.0
2017-May-22 11:31N 35°29' E 139°49'0 0.0
2017-May-22 11:00N 35°29' E 139°49'0 0.0
2017-May-22 10:31N 35°29' E 139°49'0 0.0
2017-May-22 10:01N 35°29' E 139°49'0 0.0
2017-May-22 09:30N 35°29' E 139°49'0 0.0
2017-May-22 09:01N 35°29' E 139°49'0 0.0
2017-May-22 08:30N 35°29' E 139°49'0 0.0
2017-May-22 08:00N 35°29' E 139°49'0 0.0
2017-May-22 07:30N 35°29' E 139°49'0 0.0
2017-May-22 07:00N 35°29' E 139°49'0 0.0
2017-May-22 06:30N 35°29' E 139°49'0 0.0
2017-May-22 06:00N 35°29' E 139°49'0 0.0
2017-May-22 05:29N 35°29' E 139°49'0 0.0
2017-May-22 04:56N 35°29' E 139°49'0 0.0
2017-May-22 04:29N 35°29' E 139°49'0 0.0
2017-May-22 03:59N 35°29' E 139°49'0 0.0
2017-May-22 03:29N 35°29' E 139°49'0 0.0
2017-May-22 02:59N 35°29' E 139°49'0 0.0
2017-May-22 02:29N 35°29' E 139°49'0 0.0
2017-May-22 01:59N 35°29' E 139°49'0 0.0
2017-May-22 01:29N 35°29' E 139°49'2 4.3
2017-May-22 01:01N 35°27' E 139°48'713.0
2017-May-22 00:31N 35°21' E 139°45'611.8
2017-May-22 00:00N 35°15' E 139°47'612.8
2017-May-21 23:31N 35°09' E 139°46'612.6
2017-May-21 23:00N 35°04' E 139°42'612.4
2017-May-21 22:31N 34°60' E 139°36'23410.0
2017-May-20 23:02N 34°26' E 134°55'0 0.0
2017-May-20 18:26N 34°26' E 134°55'0 0.0
2017-May-20 17:59N 34°26' E 134°55'0 0.0
2017-May-20 13:54N 34°26' E 134°55'0 0.0
2017-May-20 13:30N 34°26' E 134°55'0 0.0
2017-May-20 13:00N 34°26' E 134°55'0 0.0
2017-May-20 12:30N 34°26' E 134°55'0 0.0
2017-May-20 12:00N 34°26' E 134°55'0 0.0
2017-May-20 11:30N 34°26' E 134°55'0 0.0
2017-May-20 10:59N 34°26' E 134°55'7 0.3
2017-May-19 11:33N 34°31' E 135°01'112.3
2017-May-19 11:28N 34°32' E 135°02'510.1
2017-May-19 10:57N 34°37' E 134°59'712.9
2017-May-19 10:23N 34°39' E 134°51'245 4.7
2017-May-17 06:33N 35°14' E 139°46'112.2
2017-May-17 06:29N 35°15' E 139°46'612.2
2017-May-17 06:00N 35°20' E 139°43'612.3
2017-May-17 05:30N 35°26' E 139°43'4 9.0
2017-May-17 05:00N 35°30' E 139°44'0 0.5
2017-May-17 04:30N 35°30' E 139°45'0 0.0
2017-May-17 04:00N 35°30' E 139°45'0 0.0
2017-May-17 03:30N 35°30' E 139°45'0 0.0
2017-May-17 03:00N 35°30' E 139°45'0 0.0
2017-May-17 02:30N 35°30' E 139°45'0 0.0
2017-May-17 02:00N 35°30' E 139°45'0 0.0
2017-May-17 01:30N 35°30' E 139°45'0 0.0
2017-May-17 01:00N 35°30' E 139°45'0 0.0
2017-May-17 00:30N 35°30' E 139°45'1 2.9
2017-May-17 00:00N 35°29' E 139°43'  
Track history (hours):
 
Tides and Currents Weather Stations Pressure Air Temp Water Temp Dewpoint Dewpoint Depression Visibility Wind Speed Wind Dir Waves Ship Positions

21kousinmaru

Last reported at 2017-May-27 00:00 UTC. Time now 2017-May-27 00:26 UTC.
Position N 34°32' E 135°20'.

Length 68 m; draft 4.5 m.

MMSI: 431501835.

Date/timePositionNaut miles runAvg speedWind from/ knotsBaromVisibWave heightAir tempDewpointWater temp
2017-May-27 00:00N 34°32' E 135°20'0 0.1
2017-May-26 23:24N 34°32' E 135°19'0 0.0
2017-May-26 22:11N 34°32' E 135°19'0 0.0
2017-May-26 21:52N 34°32' E 135°19'0 0.1
2017-May-26 21:30N 34°32' E 135°19'0 0.1
2017-May-26 21:00N 34°32' E 135°19'0 0.0
2017-May-26 20:30N 34°32' E 135°19'0 0.0
2017-May-26 20:00N 34°32' E 135°19'0 0.0
2017-May-26 19:30N 34°32' E 135°19'0 0.0
2017-May-26 19:00N 34°32' E 135°19'0 0.0
2017-May-26 18:30N 34°32' E 135°19'0 0.0
2017-May-26 18:00N 34°32' E 135°19'0 0.0
2017-May-26 17:30N 34°32' E 135°19'0 0.0
2017-May-26 17:00N 34°32' E 135°19'0 0.0
2017-May-26 16:30N 34°32' E 135°19'0 0.0
2017-May-26 16:00N 34°32' E 135°19'0 0.0
2017-May-26 15:30N 34°32' E 135°19'0 0.0
2017-May-26 15:00N 34°32' E 135°19'0 0.0
2017-May-26 14:30N 34°32' E 135°19'0 0.0
2017-May-26 13:30N 34°32' E 135°19'0 0.0
2017-May-26 13:00N 34°32' E 135°19'0 0.0
2017-May-26 12:30N 34°32' E 135°19'0 0.6
2017-May-26 12:00N 34°32' E 135°19'611.2
2017-May-26 11:30N 34°28' E 135°14'812.5
2017-May-26 10:51N 34°23' E 135°06'1311.9
2017-May-26 09:46N 34°11' E 134°60'412.7
2017-May-26 09:27N 34°07' E 135°00'23110.2
2017-May-25 10:49N 35°03' E 139°33'412.0
2017-May-25 10:30N 35°05' E 139°37'612.5
2017-May-25 10:01N 35°08' E 139°43'612.6
2017-May-25 09:31N 35°14' E 139°46'612.6
2017-May-25 09:01N 35°20' E 139°43'612.8
2017-May-25 08:31N 35°26' E 139°43'4 9.0
2017-May-25 08:01N 35°30' E 139°45'0 0.2
2017-May-25 07:31N 35°30' E 139°45'0 0.0
2017-May-25 07:01N 35°30' E 139°45'0 0.0
2017-May-25 06:31N 35°30' E 139°45'0 0.0
2017-May-25 06:00N 35°30' E 139°45'0 0.0
2017-May-25 05:31N 35°30' E 139°45'0 0.0
2017-May-25 05:01N 35°30' E 139°45'0 0.0
2017-May-25 04:31N 35°30' E 139°45'0 0.0
2017-May-25 04:01N 35°30' E 139°45'0 0.0
2017-May-25 03:31N 35°30' E 139°45'0 0.0
2017-May-25 03:00N 35°30' E 139°45'2 4.5
2017-May-25 02:31N 35°29' E 139°42'4 8.1
2017-May-25 02:01N 35°28' E 139°47'1 2.8
2017-May-25 01:30N 35°29' E 139°49'0 0.0
2017-May-25 01:00N 35°29' E 139°49'0 0.0
2017-May-25 00:30N 35°29' E 139°49'0 0.1
2017-May-25 00:00N 35°29' E 139°49'0 0.1
2017-May-24 23:30N 35°29' E 139°49'0 0.1
2017-May-24 23:00N 35°29' E 139°49'0 0.0
2017-May-24 22:30N 35°29' E 139°49'0 0.0
2017-May-24 22:00N 35°29' E 139°49'0 0.0
2017-May-24 21:30N 35°29' E 139°49'0 0.1
2017-May-24 21:00N 35°29' E 139°49'0 0.0
2017-May-24 20:30N 35°29' E 139°49'0 0.0
2017-May-24 20:00N 35°29' E 139°49'0 0.0
2017-May-24 19:30N 35°29' E 139°49'0 0.0
2017-May-24 19:00N 35°29' E 139°49'0 0.0
2017-May-24 18:30N 35°29' E 139°49'0 0.0
2017-May-24 18:00N 35°29' E 139°49'0 0.0
2017-May-24 17:30N 35°29' E 139°49'0 0.0
2017-May-24 17:00N 35°29' E 139°49'0 0.0
2017-May-24 16:27N 35°29' E 139°49'0 0.0
2017-May-24 16:00N 35°29' E 139°49'0 0.0
2017-May-24 15:30N 35°29' E 139°49'0 0.0
2017-May-24 15:00N 35°29' E 139°49'4 7.8
2017-May-24 14:30N 35°26' E 139°47'1211.6
2017-May-24 13:31N 35°14' E 139°47'612.8
2017-May-24 13:00N 35°08' E 139°46'612.7
2017-May-24 12:30N 35°01' E 139°44'4 0.2
2017-May-23 08:38N 34°57' E 139°44'312.1
2017-May-23 08:25N 34°60' E 139°43'511.9
2017-May-23 08:00N 35°04' E 139°44'611.5
2017-May-23 07:30N 35°10' E 139°46'611.4
2017-May-23 06:58N 35°16' E 139°45'511.3
2017-May-23 06:31N 35°21' E 139°42'611.8
2017-May-23 06:01N 35°27' E 139°43'4 7.6
2017-May-23 05:30N 35°30' E 139°45'0 0.1
2017-May-23 05:00N 35°30' E 139°45'0 0.0
2017-May-23 04:29N 35°30' E 139°45'0 0.0
2017-May-23 03:59N 35°30' E 139°45'0 0.0
2017-May-23 03:28N 35°30' E 139°45'0 0.0
2017-May-23 02:58N 35°30' E 139°45'0 0.0
2017-May-23 02:28N 35°30' E 139°45'0 0.0
2017-May-23 01:58N 35°30' E 139°45'0 0.0
2017-May-23 01:25N 35°30' E 139°45'0 0.0
2017-May-23 00:58N 35°30' E 139°45'0 0.0
2017-May-23 00:25N 35°30' E 139°45'0 0.0
2017-May-22 23:58N 35°30' E 139°45'3 6.3
2017-May-22 23:31N 35°28' E 139°42'510.3
2017-May-22 23:01N 35°29' E 139°48'1 1.1
2017-May-22 22:30N 35°29' E 139°49'0 0.0
2017-May-22 21:59N 35°29' E 139°49'0 0.0
2017-May-22 21:31N 35°29' E 139°49'0 0.0
2017-May-22 21:01N 35°29' E 139°49'0 0.1
2017-May-22 20:30N 35°29' E 139°49'0 0.1
2017-May-22 20:00N 35°29' E 139°49'0 0.0
2017-May-22 19:30N 35°29' E 139°49'0 0.0
2017-May-22 19:01N 35°29' E 139°49'0 0.0
2017-May-22 18:31N 35°29' E 139°49'0 0.0
2017-May-22 18:00N 35°29' E 139°49'0 0.0
2017-May-22 17:30N 35°29' E 139°49'0 0.0
2017-May-22 17:00N 35°29' E 139°49'0 0.0
2017-May-22 16:30N 35°29' E 139°49'0 0.0
2017-May-22 16:00N 35°29' E 139°49'0 0.0
2017-May-22 15:30N 35°29' E 139°49'0 0.0
2017-May-22 15:00N 35°29' E 139°49'0 0.0
2017-May-22 14:00N 35°29' E 139°49'0 0.0
2017-May-22 13:30N 35°29' E 139°49'0 0.0
2017-May-22 13:00N 35°29' E 139°49'0 0.0
2017-May-22 12:30N 35°29' E 139°49'0 0.0
2017-May-22 12:00N 35°29' E 139°49'0 0.0
2017-May-22 11:31N 35°29' E 139°49'0 0.0
2017-May-22 11:00N 35°29' E 139°49'0 0.0
2017-May-22 10:31N 35°29' E 139°49'0 0.0
2017-May-22 10:01N 35°29' E 139°49'0 0.0
2017-May-22 09:30N 35°29' E 139°49'0 0.0
2017-May-22 09:01N 35°29' E 139°49'0 0.0
2017-May-22 08:30N 35°29' E 139°49'0 0.0
2017-May-22 08:00N 35°29' E 139°49'0 0.0
2017-May-22 07:30N 35°29' E 139°49'0 0.0
2017-May-22 07:00N 35°29' E 139°49'0 0.0
2017-May-22 06:30N 35°29' E 139°49'0 0.0
2017-May-22 06:00N 35°29' E 139°49'0 0.0
2017-May-22 05:29N 35°29' E 139°49'0 0.0
2017-May-22 04:56N 35°29' E 139°49'0 0.0
2017-May-22 04:29N 35°29' E 139°49'0 0.0
2017-May-22 03:59N 35°29' E 139°49'0 0.0
2017-May-22 03:29N 35°29' E 139°49'0 0.0
2017-May-22 02:59N 35°29' E 139°49'0 0.0
2017-May-22 02:29N 35°29' E 139°49'0 0.0
2017-May-22 01:59N 35°29' E 139°49'0 0.0
2017-May-22 01:29N 35°29' E 139°49'2 4.3
2017-May-22 01:01N 35°27' E 139°48'713.0
2017-May-22 00:31N 35°21' E 139°45'611.8
2017-May-22 00:00N 35°15' E 139°47'612.8
2017-May-21 23:31N 35°09' E 139°46'612.6
2017-May-21 23:00N 35°04' E 139°42'612.4
2017-May-21 22:31N 34°60' E 139°36'23410.0
2017-May-20 23:02N 34°26' E 134°55'0 0.0
2017-May-20 18:26N 34°26' E 134°55'0 0.0
2017-May-20 17:59N 34°26' E 134°55'0 0.0
2017-May-20 13:54N 34°26' E 134°55'0 0.0
2017-May-20 13:30N 34°26' E 134°55'0 0.0
2017-May-20 13:00N 34°26' E 134°55'0 0.0
2017-May-20 12:30N 34°26' E 134°55'0 0.0
2017-May-20 12:00N 34°26' E 134°55'0 0.0
2017-May-20 11:30N 34°26' E 134°55'0 0.0
2017-May-20 10:59N 34°26' E 134°55'7 0.3
2017-May-19 11:33N 34°31' E 135°01'112.3
2017-May-19 11:28N 34°32' E 135°02'510.1
2017-May-19 10:57N 34°37' E 134°59'712.9
2017-May-19 10:23N 34°39' E 134°51'245 4.7
2017-May-17 06:33N 35°14' E 139°46'112.2
2017-May-17 06:29N 35°15' E 139°46'612.2
2017-May-17 06:00N 35°20' E 139°43'612.3
2017-May-17 05:30N 35°26' E 139°43'4 9.0
2017-May-17 05:00N 35°30' E 139°44'0 0.5
2017-May-17 04:30N 35°30' E 139°45'0 0.0
2017-May-17 04:00N 35°30' E 139°45'0 0.0
2017-May-17 03:30N 35°30' E 139°45'0 0.0
2017-May-17 03:00N 35°30' E 139°45'0 0.0
2017-May-17 02:30N 35°30' E 139°45'0 0.0
2017-May-17 02:00N 35°30' E 139°45'0 0.0
2017-May-17 01:30N 35°30' E 139°45'0 0.0
2017-May-17 01:00N 35°30' E 139°45'0 0.0
2017-May-17 00:30N 35°30' E 139°45'1 2.9
2017-May-17 00:00N 35°29' E 139°43'  

Dump ship's entire track history